Time;durP1;ratioP1;P1;durP2;ratioP2;P2;SDS_P1;SDS_P2;PMS_P1;PMS_P2;Temp;Humidity;BMP_temperature;BMP_pressure;BME280_temperature;BME280_humidity;BME280_pressure;Samples;Min_cycle;Max_cycle;Signal;HPM_P1;HPM_P2
2022/03/03 00:01:29;;;;;;;;;;;;;;;17.48;46.09;102187.06;5011540;28;19961;-75
2022/03/03 00:03:54;;;;;;;;;;;;;;;17.47;46.03;102177.50;4998792;28;19913;-76
2022/03/03 00:06:19;;;;;;;;;;;;;;;17.47;45.98;102174.91;5008651;28;19969;-76
2022/03/03 00:08:46;;;;;;;;;;;;;;;17.45;45.85;102174.00;4996709;28;19922;-75
2022/03/03 00:11:11;;;;;;;;;;;;;;;17.46;45.94;102180.97;4979776;28;19925;-75
2022/03/03 00:13:36;;;;;;;;;;;;;;;17.46;46.05;102172.28;4996840;28;19985;-76
2022/03/03 00:16:03;;;;;;;;;;;;;;;17.46;45.88;102180.06;4992104;28;20016;-76
2022/03/03 00:18:28;;;;;;;;;;;;;;;17.44;45.78;102187.88;4995270;28;19921;-76
2022/03/03 00:20:53;;;;;;;;;;;;;;;17.45;45.97;102180.94;4981975;28;19921;-76
2022/03/03 00:23:18;;;;;;;;;;;;;;;17.44;45.79;102180.09;4994894;28;20289;-76
2022/03/03 00:25:44;;;;;;;;;;;;;;;17.44;45.99;102192.19;4996708;28;19918;-76
2022/03/03 00:28:09;;;;;;;;;;;;;;;17.43;46.03;102183.53;4994803;28;19922;-76
2022/03/03 00:30:34;;;;;;;;;;;;;;;17.43;45.66;102183.53;4994746;28;19932;-76
2022/03/03 00:32:59;;;;;;;;;;;;;;;17.43;45.79;102188.72;4998130;28;19922;-76
2022/03/03 00:35:25;;;;;;;;;;;;;;;17.42;45.80;102183.50;5015735;28;20265;-76
2022/03/03 00:37:50;;;;;;;;;;;;;;;17.43;45.72;102187.88;4994714;28;20334;-76
2022/03/03 00:40:15;;;;;;;;;;;;;;;17.42;45.84;102170.47;4996206;28;20279;-76
2022/03/03 00:42:40;;;;;;;;;;;;;;;17.40;45.74;102172.22;4994326;28;19922;-76
2022/03/03 00:45:06;;;;;;;;;;;;;;;17.39;45.97;102160.91;4997761;28;19928;-76
2022/03/03 00:47:31;;;;;;;;;;;;;;;17.41;45.50;102160.94;5015010;28;19925;-76
2022/03/03 00:49:56;;;;;;;;;;;;;;;17.39;45.76;102158.31;4981693;28;19926;-76
2022/03/03 00:52:21;;;;;;;;;;;;;;;17.39;45.47;102162.66;5015201;28;19921;-76
2022/03/03 00:54:47;;;;;;;;;;;;;;;17.39;45.61;102160.06;5015655;28;20372;-76
2022/03/03 00:57:12;;;;;;;;;;;;;;;17.38;45.75;102153.13;4998258;28;20455;-76
2022/03/03 00:59:37;;;;;;;;;;;;;;;17.37;45.91;102143.53;5014009;28;20379;-76
2022/03/03 01:02:03;;;;;;;;;;;;;;;17.38;45.78;102140.97;4997675;28;19924;-76
2022/03/03 01:04:28;;;;;;;;;;;;;;;17.38;45.82;102146.19;4997505;28;20379;-76
2022/03/03 01:06:53;;;;;;;;;;;;;;;17.37;45.83;102144.41;4997708;28;19981;-76
2022/03/03 01:09:18;;;;;;;;;;;;;;;17.37;45.68;102143.53;4996617;28;19934;-76
2022/03/03 01:11:44;;;;;;;;;;;;;;;17.37;45.49;102135.75;5014261;28;19964;-75
2022/03/03 01:14:09;;;;;;;;;;;;;;;17.36;45.53;102129.66;5004718;28;20347;-76
2022/03/03 01:16:34;;;;;;;;;;;;;;;17.36;45.49;102128.81;4995461;28;19929;-77
2022/03/03 01:18:59;;;;;;;;;;;;;;;17.35;45.54;102122.69;5002093;28;19944;-75
2022/03/03 01:21:25;;;;;;;;;;;;;;;17.35;45.74;102125.31;5002915;28;19963;-77
2022/03/03 01:23:50;;;;;;;;;;;;;;;17.36;45.47;102123.59;4999606;28;19918;-75
2022/03/03 01:26:15;;;;;;;;;;;;;;;17.35;46.03;102127.03;4997114;28;19921;-75
2022/03/03 01:28:41;;;;;;;;;;;;;;;17.34;45.65;102123.56;5003280;28;19921;-75
2022/03/03 01:31:06;;;;;;;;;;;;;;;17.33;45.70;102119.19;5014956;28;19967;-77
2022/03/03 01:33:31;;;;;;;;;;;;;;;17.31;45.51;102118.34;4997186;28;19924;-77
2022/03/03 01:35:56;;;;;;;;;;;;;;;17.33;45.75;102115.75;5008886;28;19940;-77
2022/03/03 01:38:22;;;;;;;;;;;;;;;17.32;45.90;102107.06;4977748;28;19924;-77
2022/03/03 01:40:47;;;;;;;;;;;;;;;17.32;45.61;102103.59;5007563;28;19913;-77
2022/03/03 01:43:12;;;;;;;;;;;;;;;17.31;45.42;102101.84;4984457;28;20277;-76
2022/03/03 01:45:37;;;;;;;;;;;;;;;17.30;45.69;102097.50;4961362;28;19968;-76
2022/03/03 01:48:03;;;;;;;;;;;;;;;17.30;45.53;102093.16;4994917;28;19925;-77
2022/03/03 01:50:28;;;;;;;;;;;;;;;17.29;45.33;102096.63;4980847;28;19929;-77
2022/03/03 01:52:53;;;;;;;;;;;;;;;17.28;45.47;102089.66;4977429;28;19929;-77
2022/03/03 01:55:19;;;;;;;;;;;;;;;17.28;45.81;102085.34;4995142;28;19948;-77
2022/03/03 01:57:46;;;;;;;;;;;;;;;17.28;45.76;102087.06;5007423;28;19913;-76
2022/03/03 02:00:12;;;;;;;;;;;;;;;17.27;45.39;102091.41;5014952;28;19968;-74
2022/03/03 02:02:38;;;;;;;;;;;;;;;17.27;45.56;102094.00;4980967;28;20004;-76
2022/03/03 02:05:03;;;;;;;;;;;;;;;17.26;45.38;102086.19;4997451;28;19921;-76
2022/03/03 02:07:28;;;;;;;;;;;;;;;17.26;45.25;102080.97;5013932;28;19918;-76
2022/03/03 02:09:53;;;;;;;;;;;;;;;17.25;45.40;102076.63;5015104;28;19933;-75
2022/03/03 02:12:19;;;;;;;;;;;;;;;17.25;45.31;102069.69;5000748;28;19917;-76
2022/03/03 02:14:45;;;;;;;;;;;;;;;17.25;45.38;102071.44;4994925;28;20288;-77
2022/03/03 02:17:10;;;;;;;;;;;;;;;17.25;45.57;102068.84;5003366;28;19913;-75
2022/03/03 02:19:35;;;;;;;;;;;;;;;17.25;45.40;102072.31;5008612;28;19980;-75
2022/03/03 02:22:01;;;;;;;;;;;;;;;17.24;45.33;102067.94;4987870;28;19945;-75
2022/03/03 02:24:26;;;;;;;;;;;;;;;17.22;45.31;102071.38;4995731;28;19922;-74
2022/03/03 02:26:51;;;;;;;;;;;;;;;17.23;45.48;102068.81;4971953;28;19922;-75
2022/03/03 02:29:16;;;;;;;;;;;;;;;17.21;45.32;102061.84;4960927;28;19980;-76
2022/03/03 02:31:44;;;;;;;;;;;;;;;17.22;45.43;102068.78;4982156;28;19966;-75
2022/03/03 02:34:10;;;;;;;;;;;;;;;17.22;45.33;102063.56;4995383;28;19929;-76
2022/03/03 02:36:35;;;;;;;;;;;;;;;17.21;45.16;102064.44;5010426;28;19924;-76
2022/03/03 02:39:01;;;;;;;;;;;;;;;17.21;45.13;102060.09;4994387;28;19918;-76
2022/03/03 02:41:27;;;;;;;;;;;;;;;17.21;45.43;102061.84;5003678;28;20439;-76
2022/03/03 02:43:52;;;;;;;;;;;;;;;17.19;45.27;102064.41;4994309;28;19972;-75
2022/03/03 02:46:18;;;;;;;;;;;;;;;17.19;45.00;102061.81;4977162;28;19918;-76
2022/03/03 02:48:44;;;;;;;;;;;;;;;17.18;45.17;102060.09;4998051;28;20291;-75
2022/03/03 02:51:09;;;;;;;;;;;;;;;17.19;45.14;102051.41;4969224;28;20373;-76
2022/03/03 02:53:34;;;;;;;;;;;;;;;17.18;45.22;102054.88;4998671;28;20339;-75
2022/03/03 02:56:00;;;;;;;;;;;;;;;17.18;45.29;102054.00;4998153;28;20016;-75
2022/03/03 02:58:25;;;;;;;;;;;;;;;17.18;45.44;102056.59;4982120;28;19918;-76
2022/03/03 03:00:51;;;;;;;;;;;;;;;17.17;45.28;102052.25;5003076;28;20007;-77
2022/03/03 03:03:17;;;;;;;;;;;;;;;17.17;45.04;102045.31;5017016;28;19921;-76
2022/03/03 03:05:43;;;;;;;;;;;;;;;17.17;44.99;102049.66;5017794;28;19929;-76
2022/03/03 03:08:09;;;;;;;;;;;;;;;17.17;45.11;102052.25;5009277;28;19918;-77
2022/03/03 03:10:34;;;;;;;;;;;;;;;17.16;45.35;102043.59;5001005;28;19921;-77
2022/03/03 03:13:00;;;;;;;;;;;;;;;17.15;45.23;102041.81;5011470;28;19972;-77
2022/03/03 03:15:25;;;;;;;;;;;;;;;17.15;45.34;102038.34;4997869;28;19989;-76
2022/03/03 03:17:51;;;;;;;;;;;;;;;17.12;45.34;102036.59;4980567;28;19929;-76
2022/03/03 03:20:16;;;;;;;;;;;;;;;17.13;45.16;102038.34;4997761;28;20285;-76
2022/03/03 03:22:42;;;;;;;;;;;;;;;17.13;45.30;102035.72;4998494;28;19922;-76
2022/03/03 03:25:08;;;;;;;;;;;;;;;17.13;45.16;102027.94;4983535;28;19999;-76
2022/03/03 03:27:34;;;;;;;;;;;;;;;17.12;45.03;102026.19;4999424;28;19905;-75
2022/03/03 03:29:59;;;;;;;;;;;;;;;17.12;45.19;102015.78;4998595;28;19933;-76
2022/03/03 03:32:25;;;;;;;;;;;;;;;17.12;45.27;102017.53;4979884;28;19914;-78
2022/03/03 03:34:50;;;;;;;;;;;;;;;17.12;45.19;102015.78;4979990;28;19922;-78
2022/03/03 03:37:16;;;;;;;;;;;;;;;17.13;44.96;102016.66;4997668;28;20300;-76
2022/03/03 03:39:41;;;;;;;;;;;;;;;17.11;44.94;102019.22;5009329;28;19943;-76
2022/03/03 03:42:07;;;;;;;;;;;;;;;17.11;45.04;102021.84;4983246;28;19924;-78
2022/03/03 03:44:32;;;;;;;;;;;;;;;17.10;45.32;102022.72;4997445;28;20376;-78
2022/03/03 03:46:57;;;;;;;;;;;;;;;17.10;45.01;102022.72;4979881;28;19918;-78
2022/03/03 03:49:23;;;;;;;;;;;;;;;17.11;44.81;102013.16;4997098;28;19922;-76
2022/03/03 03:51:49;;;;;;;;;;;;;;;17.09;44.93;102009.69;4977658;28;19921;-77
2022/03/03 03:54:14;;;;;;;;;;;;;;;17.09;44.93;102015.75;4967379;28;19929;-77
2022/03/03 03:56:39;;;;;;;;;;;;;;;17.08;44.71;102010.53;4997094;28;19918;-76
2022/03/03 03:59:04;;;;;;;;;;;;;;;17.08;44.88;102003.59;4997206;28;19929;-77
2022/03/03 04:01:31;;;;;;;;;;;;;;;17.08;44.83;102007.94;4979551;28;20288;-76
2022/03/03 04:03:56;;;;;;;;;;;;;;;17.08;44.96;102002.75;5000378;28;19922;-76
2022/03/03 04:06:21;;;;;;;;;;;;;;;17.08;44.97;102011.41;5013811;28;19913;-77
2022/03/03 04:08:47;;;;;;;;;;;;;;;17.08;44.99;102013.16;5016237;28;20318;-76
2022/03/03 04:11:12;;;;;;;;;;;;;;;17.07;45.10;102001.84;4973948;28;19991;-78
2022/03/03 04:13:37;;;;;;;;;;;;;;;17.07;44.81;102007.03;4996904;28;19917;-76
2022/03/03 04:16:03;;;;;;;;;;;;;;;17.05;44.76;102001.84;5010575;28;19949;-76
2022/03/03 04:18:30;;;;;;;;;;;;;;;17.05;44.90;102014.84;5004838;28;20374;-77
2022/03/03 04:20:55;;;;;;;;;;;;;;;17.04;44.82;102002.69;4987694;28;19960;-76
2022/03/03 04:23:20;;;;;;;;;;;;;;;17.04;45.15;102010.50;4999035;28;19925;-78
2022/03/03 04:25:46;;;;;;;;;;;;;;;17.04;45.17;102004.44;5015765;28;19929;-77
2022/03/03 04:28:11;;;;;;;;;;;;;;;17.03;45.15;101995.75;5016046;28;19918;-76
2022/03/03 04:30:36;;;;;;;;;;;;;;;17.03;44.67;101998.34;4992151;28;20032;-77
2022/03/03 04:33:01;;;;;;;;;;;;;;;17.02;44.88;101993.13;4989021;28;19948;-79
2022/03/03 04:35:28;;;;;;;;;;;;;;;17.01;44.70;101988.81;4994475;28;19914;-77
2022/03/03 04:37:53;;;;;;;;;;;;;;;17.01;44.98;101992.28;4996276;28;19922;-76
2022/03/03 04:40:19;;;;;;;;;;;;;;;17.01;44.71;101996.59;4997791;28;19971;-76
2022/03/03 04:42:44;;;;;;;;;;;;;;;17.01;44.74;101989.66;5004382;28;19964;-75
2022/03/03 04:45:09;;;;;;;;;;;;;;;17.00;44.53;101990.50;4996547;28;19917;-76
2022/03/03 04:47:35;;;;;;;;;;;;;;;17.00;44.84;101992.25;4996038;28;19989;-76
2022/03/03 04:50:00;;;;;;;;;;;;;;;17.00;44.56;101992.25;5004378;28;20356;-77
2022/03/03 04:52:25;;;;;;;;;;;;;;;16.99;44.65;101991.38;4982751;28;19950;-76
2022/03/03 04:54:50;;;;;;;;;;;;;;;16.99;44.86;101993.97;4998452;28;20016;-76
2022/03/03 04:57:16;;;;;;;;;;;;;;;17.00;44.56;101992.25;4998177;28;19968;-76
2022/03/03 04:59:42;;;;;;;;;;;;;;;16.98;44.75;101988.75;4982460;28;19918;-76
2022/03/03 05:02:07;;;;;;;;;;;;;;;16.99;44.78;101987.91;4978310;28;20283;-76
2022/03/03 05:04:33;;;;;;;;;;;;;;;16.98;44.97;101991.34;4978807;28;19921;-78
2022/03/03 05:06:58;;;;;;;;;;;;;;;16.97;44.80;101982.69;4984714;28;19921;-76
2022/03/03 05:09:23;;;;;;;;;;;;;;;16.96;44.95;101975.75;4978654;28;19976;-76
2022/03/03 05:11:48;;;;;;;;;;;;;;;16.96;44.70;101975.75;4999855;28;19914;-76
2022/03/03 05:14:14;;;;;;;;;;;;;;;16.95;44.58;101979.19;4984453;28;19952;-76
2022/03/03 05:16:39;;;;;;;;;;;;;;;16.94;44.60;101977.47;4994407;28;19969;-76
2022/03/03 05:19:04;;;;;;;;;;;;;;;16.95;44.65;101981.78;4995742;28;19917;-76
2022/03/03 05:21:31;;;;;;;;;;;;;;;16.95;44.89;101991.31;5009051;28;19918;-76
2022/03/03 05:23:57;;;;;;;;;;;;;;;16.94;44.60;101979.16;4994045;28;19922;-78
2022/03/03 05:26:22;;;;;;;;;;;;;;;16.94;44.46;101973.97;5000345;28;19944;-75
2022/03/03 05:28:47;;;;;;;;;;;;;;;16.93;44.70;101972.22;5012124;28;19928;-76
2022/03/03 05:31:12;;;;;;;;;;;;;;;16.92;44.79;101971.38;5014715;28;19917;-78
2022/03/03 05:33:38;;;;;;;;;;;;;;;16.92;44.94;101980.88;5012058;28;20332;-76
2022/03/03 05:36:04;;;;;;;;;;;;;;;16.91;44.42;101980.00;5014039;28;19921;-76
2022/03/03 05:38:31;;;;;;;;;;;;;;;16.92;44.44;101978.28;4991038;28;19925;-76
2022/03/03 05:40:56;;;;;;;;;;;;;;;16.93;44.53;101985.22;5008654;28;19925;-77
2022/03/03 05:43:23;;;;;;;;;;;;;;;16.91;44.53;101979.13;4978299;28;19922;-77
2022/03/03 05:45:48;;;;;;;;;;;;;;;16.91;44.76;101981.75;4977975;28;20372;-76
2022/03/03 05:48:16;;;;;;;;;;;;;;;16.91;44.69;101990.41;4995023;28;19925;-78
2022/03/03 05:50:41;;;;;;;;;;;;;;;16.91;44.41;101981.75;4977505;28;19929;-76
2022/03/03 05:53:06;;;;;;;;;;;;;;;16.89;44.76;101983.44;4999539;28;20276;-75
2022/03/03 05:55:32;;;;;;;;;;;;;;;16.88;44.56;101981.72;4986791;28;20292;-76
2022/03/03 05:57:59;;;;;;;;;;;;;;;16.88;44.35;101979.13;4995019;28;20038;-76
2022/03/03 06:00:26;;;;;;;;;;;;;;;16.88;44.17;101979.13;4978493;28;20356;-78
2022/03/03 06:02:53;;;;;;;;;;;;;;;16.88;44.25;101979.97;4970088;28;19969;-77
2022/03/03 06:05:19;;;;;;;;;;;;;;;16.87;44.58;101986.03;4977425;28;20336;-76
2022/03/03 06:07:49;;;;;;;;;;;;;;;16.87;44.88;101991.22;5002703;28;20284;-76
2022/03/03 06:10:19;;;;;;;;;;;;;;;16.87;44.55;101991.22;5001783;28;19921;-75
2022/03/03 06:12:48;;;;;;;;;;;;;;;16.89;45.00;101993.84;5014307;28;19914;-75
2022/03/03 06:15:14;;;;;;;;;;;;;;;16.90;44.76;101992.97;4993183;28;19929;-75
2022/03/03 06:17:43;;;;;;;;;;;;;;;16.88;44.82;101999.91;4973457;28;19937;-75
2022/03/03 06:20:09;;;;;;;;;;;;;;;16.90;44.68;101998.19;4959704;28;19924;-76
2022/03/03 06:22:34;;;;;;;;;;;;;;;16.92;44.75;102004.28;4985909;28;19922;-76
2022/03/03 06:24:59;;;;;;;;;;;;;;;16.91;44.88;101992.16;4959717;28;19965;-75
2022/03/03 06:27:25;;;;;;;;;;;;;;;16.90;45.08;102000.78;4958214;28;19906;-76
2022/03/03 06:29:50;;;;;;;;;;;;;;;16.91;44.93;102002.53;4989602;28;20296;-76
2022/03/03 06:32:15;;;;;;;;;;;;;;;16.90;44.70;102000.78;4969253;28;19957;-76
2022/03/03 06:34:41;;;;;;;;;;;;;;;16.90;44.91;102009.47;4988221;28;19922;-76
2022/03/03 06:37:06;;;;;;;;;;;;;;;16.91;44.71;102002.53;4976913;28;19914;-76
2022/03/03 06:39:31;;;;;;;;;;;;;;;16.91;44.98;102011.22;4945056;28;20388;-75
2022/03/03 06:41:57;;;;;;;;;;;;;;;16.91;44.99;102005.16;4975055;28;19918;-77
2022/03/03 06:44:22;;;;;;;;;;;;;;;17.07;47.74;102007.03;4958418;28;19973;-76
2022/03/03 06:46:48;;;;;;;;;;;;;;;17.18;47.88;101996.75;4975072;28;19918;-75
2022/03/03 06:49:13;;;;;;;;;;;;;;;17.26;47.31;102002.94;4962173;28;19979;-75
2022/03/03 06:51:43;;;;;;;;;;;;;;;17.30;46.90;102004.72;4989437;28;19918;-75
2022/03/03 06:54:13;;;;;;;;;;;;;;;17.32;46.61;102004.72;4959709;28;20006;-76
2022/03/03 06:56:44;;;;;;;;;;;;;;;17.32;46.71;102004.72;4986030;28;20012;-76
2022/03/03 06:59:10;;;;;;;;;;;;;;;17.35;46.49;102007.34;4959198;28;19930;-77
2022/03/03 07:01:35;;;;;;;;;;;;;;;17.35;46.54;102008.22;4976739;28;19918;-76
2022/03/03 07:04:01;;;;;;;;;;;;;;;17.35;46.50;102003.00;4967613;28;19918;-76
2022/03/03 07:06:27;;;;;;;;;;;;;;;17.37;46.86;102005.63;4989364;28;20434;-76
2022/03/03 07:08:55;;;;;;;;;;;;;;;17.38;46.95;102004.78;4961710;28;19953;-75
2022/03/03 07:11:21;;;;;;;;;;;;;;;17.40;46.68;101996.16;4943668;28;19957;-76
2022/03/03 07:13:47;;;;;;;;;;;;;;;17.41;46.55;101997.88;4941243;28;19961;-77
2022/03/03 07:16:23;;;;;;;;;;;;;;;17.42;46.53;102003.94;4985893;28;19922;-76
2022/03/03 07:18:52;;;;;;;;;;;;;;;17.43;46.57;102006.56;4994041;28;20238;-76
2022/03/03 07:21:26;;;;;;;;;;;;;;;17.44;46.60;102010.03;4976639;28;19921;-76
2022/03/03 07:24:12;;;;;;;;;;;;;;;17.44;46.86;102005.72;4976740;28;19914;-75
2022/03/03 07:26:37;;;;;;;;;;;;;;;17.46;46.61;102011.81;4976534;28;19976;-77
2022/03/03 07:29:04;;;;;;;;;;;;;;;17.47;46.46;102013.56;4960313;28;19922;-77
2022/03/03 07:31:31;;;;;;;;;;;;;;;17.48;46.49;102019.63;4960427;28;20325;-77
2022/03/03 07:33:59;;;;;;;;;;;;;;;17.48;46.92;102022.22;4993902;28;19922;-74
2022/03/03 07:36:27;;;;;;;;;;;;;;;17.50;46.47;102027.47;4993881;28;19936;-77
2022/03/03 07:38:57;;;;;;;;;;;;;;;17.49;46.22;102021.38;4993766;28;19918;-74
2022/03/03 07:41:25;;;;;;;;;;;;;;;17.51;46.56;102034.38;4979324;28;20009;-76
2022/03/03 07:43:50;;;;;;;;;;;;;;;17.51;46.38;102024.88;4980232;28;20314;-75
2022/03/03 07:46:16;;;;;;;;;;;;;;;17.54;46.27;102034.44;4997393;28;20008;-74
2022/03/03 07:48:42;;;;;;;;;;;;;;;17.53;46.46;102028.38;4997519;28;19969;-76
2022/03/03 07:51:09;;;;;;;;;;;;;;;17.54;46.35;102022.28;4979719;28;19918;-76
2022/03/03 07:53:35;;;;;;;;;;;;;;;17.58;46.51;102028.41;4997294;28;20273;-74
2022/03/03 07:56:02;;;;;;;;;;;;;;;17.63;46.09;102024.09;4964617;28;19918;-75
2022/03/03 07:58:28;;;;;;;;;;;;;;;17.71;46.12;102032.88;4997642;28;19975;-74
2022/03/03 08:00:55;;;;;;;;;;;;;;;17.82;45.71;102028.66;4979437;28;19921;-78
2022/03/03 08:03:21;;;;;;;;;;;;;;;17.95;45.52;102021.81;4979526;28;19913;-76
2022/03/03 08:05:55;;;;;;;;;;;;;;;18.17;44.81;102020.22;4979680;28;19977;-76
2022/03/03 08:08:21;;;;;;;;;;;;;;;18.42;44.24;102022.97;4979707;28;20373;-77
2022/03/03 08:10:47;;;;;;;;;;;;;;;18.60;43.85;102022.25;4996880;28;19964;-75
2022/03/03 08:13:14;;;;;;;;;;;;;;;18.65;43.73;102018.78;4979553;28;19921;-76
2022/03/03 08:15:43;;;;;;;;;;;;;;;18.69;43.90;102025.75;4996788;28;19980;-76
2022/03/03 08:18:10;;;;;;;;;;;;;;;18.74;43.94;102027.50;4963384;28;20401;-79
2022/03/03 08:20:35;;;;;;;;;;;;;;;18.82;44.04;102031.06;4996915;28;19920;-76
2022/03/03 08:23:02;;;;;;;;;;;;;;;18.81;44.27;102035.38;4996835;28;20067;-77
2022/03/03 08:25:27;;;;;;;;;;;;;;;18.79;44.10;102036.25;4979141;28;19964;-78
2022/03/03 08:27:54;;;;;;;;;;;;;;;18.68;44.21;102041.38;4979296;28;19921;-76
2022/03/03 08:30:20;;;;;;;;;;;;;;;18.67;44.28;102037.91;4996495;28;20052;-76
2022/03/03 08:32:48;;;;;;;;;;;;;;;18.71;44.15;102037.06;4978967;28;19914;-76
2022/03/03 08:35:16;;;;;;;;;;;;;;;18.71;44.12;102036.19;4996603;28;19914;-77
2022/03/03 08:37:42;;;;;;;;;;;;;;;18.68;43.97;102038.75;4979105;28;19918;-76
2022/03/03 08:40:09;;;;;;;;;;;;;;;18.70;44.11;102040.53;4996563;28;19914;-77
2022/03/03 08:42:36;;;;;;;;;;;;;;;18.69;44.17;102044.00;4996594;28;19913;-77
2022/03/03 08:45:04;;;;;;;;;;;;;;;18.66;44.11;102040.50;4996399;28;20008;-77
2022/03/03 08:47:30;;;;;;;;;;;;;;;18.63;43.90;102048.31;4978887;28;19914;-78
2022/03/03 08:50:01;;;;;;;;;;;;;;;18.61;44.02;102037.00;4978954;28;19922;-77
2022/03/03 08:52:26;;;;;;;;;;;;;;;18.61;43.89;102044.81;4977586;28;20357;-78
2022/03/03 08:54:52;;;;;;;;;;;;;;;18.58;43.80;102048.28;4978740;28;19925;-77
2022/03/03 08:57:17;;;;;;;;;;;;;;;18.59;43.95;102043.94;4962349;28;20387;-77
2022/03/03 08:59:43;;;;;;;;;;;;;;;18.58;43.98;102050.91;4978408;28;19914;-77
2022/03/03 09:02:11;;;;;;;;;;;;;;;18.55;43.89;102040.44;4978602;28;19977;-77
2022/03/03 09:04:36;;;;;;;;;;;;;;;18.53;43.82;102046.50;4978764;28;19921;-76
2022/03/03 09:07:01;;;;;;;;;;;;;;;18.51;43.98;102043.91;4978747;28;19922;-76
2022/03/03 09:09:27;;;;;;;;;;;;;;;18.50;43.88;102043.00;4997253;28;20012;-76
2022/03/03 09:11:52;;;;;;;;;;;;;;;18.48;43.88;102046.47;4980698;28;20379;-77
2022/03/03 09:14:17;;;;;;;;;;;;;;;18.48;44.01;102054.31;4964533;28;19918;-76
2022/03/03 09:16:42;;;;;;;;;;;;;;;18.46;44.06;102045.59;4998096;28;19976;-79
2022/03/03 09:19:08;;;;;;;;;;;;;;;18.46;43.90;102040.38;4964983;28;20349;-76
2022/03/03 09:21:33;;;;;;;;;;;;;;;18.44;44.08;102034.28;4964364;28;20431;-79
2022/03/03 09:23:58;;;;;;;;;;;;;;;18.43;43.93;102040.38;4979039;28;19917;-77
2022/03/03 09:26:23;;;;;;;;;;;;;;;18.42;44.11;102038.63;4978546;28;19924;-76
2022/03/03 09:28:49;;;;;;;;;;;;;;;18.40;44.19;102041.25;4962485;28;20369;-78
2022/03/03 09:31:14;;;;;;;;;;;;;;;18.39;44.26;102041.22;4995890;28;19918;-77
2022/03/03 09:33:39;;;;;;;;;;;;;;;18.37;44.07;102049.03;4978557;28;19922;-77
2022/03/03 09:36:04;;;;;;;;;;;;;;;18.37;44.25;102040.34;4978464;28;20373;-77
2022/03/03 09:38:30;;;;;;;;;;;;;;;18.35;44.25;102040.31;4962047;28;19917;-77
2022/03/03 09:40:55;;;;;;;;;;;;;;;18.34;44.16;102041.19;4978155;28;19914;-78
2022/03/03 09:43:21;;;;;;;;;;;;;;;18.33;44.25;102038.56;4977887;28;20352;-79
2022/03/03 09:45:46;;;;;;;;;;;;;;;18.30;44.27;102035.09;4995546;28;19913;-77
2022/03/03 09:48:11;;;;;;;;;;;;;;;18.29;44.28;102040.28;4995303;28;19917;-78
2022/03/03 09:50:38;;;;;;;;;;;;;;;18.29;44.38;102037.66;4977855;28;20012;-79
2022/03/03 09:53:07;;;;;;;;;;;;;;;18.27;44.52;102029.88;4977557;28;19917;-77
2022/03/03 09:55:32;;;;;;;;;;;;;;;18.26;44.40;102028.09;4994891;28;20391;-76
2022/03/03 09:57:58;;;;;;;;;;;;;;;18.27;44.30;102029.00;4961435;28;19949;-76
2022/03/03 10:00:23;;;;;;;;;;;;;;;18.25;44.31;102018.56;4961623;28;19918;-75
2022/03/03 10:02:56;;;;;;;;;;;;;;;18.23;44.46;102028.09;4977263;28;20368;-76
2022/03/03 10:05:28;;;;;;;;;;;;;;;18.21;44.36;102032.41;4977535;28;20356;-77
2022/03/03 10:08:08;;;;;;;;;;;;;;;18.19;44.21;102026.31;4977512;28;19914;-76
2022/03/03 10:10:34;;;;;;;;;;;;;;;18.17;44.44;102017.63;4977391;28;19922;-76
2022/03/03 10:12:59;;;;;;;;;;;;;;;18.17;44.40;102024.59;4994698;28;20411;-77
2022/03/03 10:15:26;;;;;;;;;;;;;;;18.15;44.44;102027.16;4978636;28;19922;-75
2022/03/03 10:18:17;;;;;;;;;;;;;;;18.14;44.19;102020.22;4994719;28;19921;-77
2022/03/03 10:20:53;;;;;;;;;;;;;;;18.15;44.50;102021.09;4972400;28;19955;-77
2022/03/03 10:23:22;;;;;;;;;;;;;;;18.16;44.32;102028.03;4977274;28;19914;-74
2022/03/03 10:25:47;;;;;;;;;;;;;;;18.16;44.50;102028.03;4995908;28;19913;-78
2022/03/03 10:28:18;;;;;;;;;;;;;;;18.15;44.44;102031.50;4981463;28;19925;-81
2022/03/03 10:30:47;;;;;;;;;;;;;;;18.14;44.40;102017.63;4996635;28;19918;-77
2022/03/03 10:33:17;;;;;;;;;;;;;;;18.15;44.72;102021.94;4996392;28;19936;-75
2022/03/03 10:35:42;;;;;;;;;;;;;;;18.14;44.87;102009.81;4996471;28;19913;-76
2022/03/03 10:38:07;;;;;;;;;;;;;;;18.16;44.87;102009.78;4996372;28;20328;-76
2022/03/03 10:40:36;;;;;;;;;;;;;;;18.16;44.93;102013.28;4970202;28;19996;-77
2022/03/03 10:43:01;;;;;;;;;;;;;;;18.17;44.84;102017.63;5012901;28;19976;-77
2022/03/03 10:45:27;;;;;;;;;;;;;;;18.17;44.77;102017.63;4975042;28;19926;-77
2022/03/03 10:47:59;;;;;;;;;;;;;;;18.18;44.67;102013.28;4976929;28;19928;-78
2022/03/03 10:50:25;;;;;;;;;;;;;;;18.17;44.67;102017.63;4976758;28;19917;-78
2022/03/03 10:52:50;;;;;;;;;;;;;;;18.18;44.73;102013.28;4960616;28;19980;-77
2022/03/03 10:55:17;;;;;;;;;;;;;;;18.19;44.75;102009.84;4976778;28;19917;-77
2022/03/03 10:57:42;;;;;;;;;;;;;;;18.20;44.54;102006.34;4976780;28;19918;-77
2022/03/03 11:00:14;;;;;;;;;;;;;;;18.20;44.56;102012.41;4994141;28;19913;-77
2022/03/03 11:02:41;;;;;;;;;;;;;;;18.21;44.48;102014.19;4992235;28;19925;-76
2022/03/03 11:05:09;;;;;;;;;;;;;;;18.22;44.52;102007.22;4996175;28;19963;-76
2022/03/03 11:07:35;;;;;;;;;;;;;;;18.21;44.49;102008.97;4980216;28;20004;-77
2022/03/03 11:10:01;;;;;;;;;;;;;;;18.22;44.59;102005.50;4994436;28;19925;-82
2022/03/03 11:12:27;;;;;;;;;;;;;;;18.23;44.60;102004.66;4960499;28;20384;-77
2022/03/03 11:14:56;;;;;;;;;;;;;;;18.24;44.62;101993.34;4977848;28;20017;-79
2022/03/03 11:17:22;;;;;;;;;;;;;;;18.26;44.61;101988.16;4998035;28;19953;-78
2022/03/03 11:19:49;;;;;;;;;;;;;;;18.26;44.42;101993.38;4964310;28;19917;-80
2022/03/03 11:22:16;;;;;;;;;;;;;;;18.27;44.45;101992.53;4980257;28;19955;-78
2022/03/03 11:24:42;;;;;;;;;;;;;;;18.28;44.31;101992.50;4980732;28;19914;-79
2022/03/03 11:27:10;;;;;;;;;;;;;;;18.28;44.48;101995.09;4980248;28;19914;-78
2022/03/03 11:29:38;;;;;;;;;;;;;;;18.28;44.34;101991.66;4964349;28;20388;-80
2022/03/03 11:32:07;;;;;;;;;;;;;;;18.26;44.25;101989.03;4980238;28;20364;-79
2022/03/03 11:34:36;;;;;;;;;;;;;;;18.26;44.37;101981.19;4980348;28;19913;-77
2022/03/03 11:37:03;;;;;;;;;;;;;;;18.26;44.48;101978.59;4998374;28;19996;-80
2022/03/03 11:39:49;;;;;;;;;;;;;;;18.26;44.54;101985.53;4981997;28;19921;-83
2022/03/03 11:42:16;;;;;;;;;;;;;;;18.25;44.39;101969.06;4992789;28;19968;-83
2022/03/03 11:44:41;;;;;;;;;;;;;;;18.25;44.63;101968.19;4998543;28;19953;-78
2022/03/03 11:47:18;;;;;;;;;;;;;;;18.25;44.56;101970.78;4980996;28;19918;-82
2022/03/03 11:50:02;;;;;;;;;;;;;;;18.25;44.60;101969.06;4980265;28;19922;-80
2022/03/03 11:52:27;;;;;;;;;;;;;;;18.25;44.71;101966.44;4979757;28;20261;-79
2022/03/03 11:54:57;;;;;;;;;;;;;;;18.27;44.85;101961.25;4963659;28;19937;-79
2022/03/03 11:57:27;;;;;;;;;;;;;;;18.27;44.42;101962.13;4979966;28;19921;-80
2022/03/03 11:59:53;;;;;;;;;;;;;;;18.27;44.56;101956.03;4997277;28;20024;-79
2022/03/03 12:02:26;;;;;;;;;;;;;;;18.28;44.70;101969.06;4979780;28;20323;-78
2022/03/03 12:05:11;;;;;;;;;;;;;;;18.27;44.68;101951.69;4997285;28;19920;-78
2022/03/03 12:07:36;;;;;;;;;;;;;;;18.28;44.62;101952.56;4972549;28;19976;-77
2022/03/03 12:10:12;;;;;;;;;;;;;;;18.28;44.61;101949.94;4979676;28;19926;-77
2022/03/03 12:12:37;;;;;;;;;;;;;;;18.29;44.66;101949.06;4979559;28;19981;-78
2022/03/03 12:15:04;;;;;;;;;;;;;;;18.29;44.62;101949.97;4963060;28;20456;-79
2022/03/03 12:17:39;;;;;;;;;;;;;;;18.30;44.77;101954.31;4963311;28;19971;-76
2022/03/03 12:20:23;;;;;;;;;;;;;;;18.31;44.72;101955.16;4979188;28;19972;-76
2022/03/03 12:23:07;;;;;;;;;;;;;;;18.29;44.72;101952.56;4979259;28;19914;-79
2022/03/03 12:25:47;;;;;;;;;;;;;;;18.30;44.44;101953.44;4996435;28;20008;-78
2022/03/03 12:28:16;;;;;;;;;;;;;;;18.30;44.45;101953.44;4979737;28;20283;-78
2022/03/03 12:30:43;;;;;;;;;;;;;;;18.30;44.44;101954.31;4996645;28;20380;-79
2022/03/03 12:33:08;;;;;;;;;;;;;;;18.33;44.56;101960.41;4963027;28;19968;-78